Trainsmeadow, New York
Current Conditions -  °F | °C
As of 5:51 PM on Monday 24 Nov 2014 (Local Time) from KLGA Reporting Station
Clear Clear  
Wind Chill: 63°   Ceiling: Unl
Heat Index: 63°   Visibility: 10mi
Dew Point: 54°   Wind: 10mph
Humidity: 72%   Direction: 190°S
Pressure: 29.66"   Gusts: NA
Location:  40.7696°N, 73.8809°W
Report Text: KLGA 242251Z 19009KT 10SM CLR 17/12 A2966 RMK AO2 SLP042 T01720122
Loading
Personal Weather Stations






























Interactive Weather Map New forecast layout! Learn more

10-Day Weather Forecast

Advertisements
Track Severe Weather on mobile